Greenville Spartanburg International Airport Greenville US
ICAO: KGSP
IATA: GSP
Category: Large
Scheduled Services: Yes

Elevation: 964 ft
TransAlt. 18000 ft.

Airport Communications:
GREER APP/DEP:120.6
ATIS:134.25
CTAF:120.1
GREER GND:121.9
GREER TWR:120.1
UNICOM:122.95

KGSP Zoom In..

If you have problems with the map follow the link
https://www.worldairports.se/pages/airport.php?
ICAO=KGSP

Runways:

(A) RW 04 length 11001 ft width 150 ft
ILS 109.30 / hdg 38

(B) RW 22 length 11001 ft width 150 ft
ILS 110.70 / hdg 218

Location; KGSP
Day. 18 / Time. 10.53 Zulu
* Altimeter: 30.50
* Temperature: 02° c. 35.6°f.
* Wind from: 010° Speed 03 kn.
Dewpoint: -04° c.
Visibility: 10 Statute Miles.
Clouds: Overcast 4400 ft.

KGSP 181053Z AUTO 01003KT 10SM OVC044 02/M04 A3050 RMK AO2 SLP331 T00221039


Wind From 010°
Speed 03 kn.

 
 
jpsmedia worldairports.se 2020   terms of use